Time;durP1;ratioP1;P1;durP2;ratioP2;P2;SDS_P1;SDS_P2;PMS_P1;PMS_P2;Temp;Humidity;BMP_temperature;BMP_pressure;BME280_temperature;BME280_humidity;BME280_pressure;Samples;Min_cycle;Max_cycle;Signal;HPM_P1;HPM_P2
2022/03/25 00:01:26;;;;;;;148.35;72.60;;;4.70;99.90;;;;;;5110443;28;20127;-77
2022/03/25 00:03:52;;;;;;;130.45;68.85;;;4.70;99.90;;;;;;5107127;28;20058;-80
2022/03/25 00:06:18;;;;;;;132.38;68.88;;;4.70;99.90;;;;;;5107468;27;20490;-81
2022/03/25 00:08:44;;;;;;;140.18;71.50;;;4.60;99.90;;;;;;5108860;27;20118;-80
2022/03/25 00:11:10;;;;;;;141.80;70.07;;;4.60;99.90;;;;;;5110520;27;20042;-79
2022/03/25 00:13:35;;;;;;;122.25;64.53;;;4.60;99.90;;;;;;5112016;27;20391;-79
2022/03/25 00:16:04;;;;;;;137.48;69.05;;;4.80;99.90;;;;;;5115137;27;20051;-78
2022/03/25 00:18:30;;;;;;;131.90;67.25;;;4.50;99.90;;;;;;5109933;27;20042;-77
2022/03/25 00:20:56;;;;;;;133.77;67.00;;;4.50;99.90;;;;;;5130138;27;20050;-80
2022/03/25 00:23:21;;;;;;;136.13;68.60;;;4.40;99.90;;;;;;5114852;27;20116;-80
2022/03/25 00:25:47;;;;;;;141.00;69.63;;;4.40;99.90;;;;;;5111813;27;20028;-80
2022/03/25 00:28:13;;;;;;;136.23;69.82;;;4.40;99.90;;;;;;5097071;27;20039;-78
2022/03/25 00:30:38;;;;;;;130.20;68.07;;;4.40;99.90;;;;;;5099366;27;20039;-77
2022/03/25 00:33:05;;;;;;;134.10;67.45;;;4.40;99.90;;;;;;5115657;27;20066;-79
2022/03/25 00:35:31;;;;;;;115.38;60.58;;;4.40;99.90;;;;;;5136267;27;20198;-78
2022/03/25 00:38:00;;;;;;;134.50;65.95;;;4.30;99.90;;;;;;5108928;27;20469;-80
2022/03/25 00:40:26;;;;;;;134.18;68.22;;;4.30;99.90;;;;;;5114282;27;20121;-80
2022/03/25 00:42:52;;;;;;;118.25;62.40;;;4.30;99.90;;;;;;5091007;27;20107;-79
2022/03/25 00:45:17;;;;;;;120.25;60.85;;;4.30;99.90;;;;;;5110550;27;20027;-79
2022/03/25 00:47:43;;;;;;;124.32;63.38;;;4.20;99.90;;;;;;5110078;27;20114;-78
2022/03/25 00:50:11;;;;;;;128.35;64.50;;;4.20;99.90;;;;;;5134642;27;20382;-81
2022/03/25 00:52:37;;;;;;;120.70;62.20;;;4.30;99.90;;;;;;5110811;27;20138;-80
2022/03/25 00:55:05;;;;;;;117.07;61.33;;;4.30;99.90;;;;;;5131635;27;20478;-77
2022/03/25 00:57:31;;;;;;;132.05;63.40;;;4.30;99.90;;;;;;5108302;27;20046;-79
2022/03/25 00:59:57;;;;;;;117.13;63.05;;;4.30;99.90;;;;;;5114470;27;20405;-77
2022/03/25 01:02:23;;;;;;;127.80;63.25;;;4.30;99.90;;;;;;5097298;27;20050;-81
2022/03/25 01:04:49;;;;;;;133.25;64.20;;;4.20;99.90;;;;;;5109670;27;20032;-81
2022/03/25 01:07:16;;;;;;;129.70;63.92;;;4.30;99.90;;;;;;5116642;27;20042;-81
2022/03/25 01:09:41;;;;;;;127.68;64.78;;;4.30;99.90;;;;;;5113578;27;20126;-78
2022/03/25 01:12:08;;;;;;;121.07;61.63;;;4.20;99.90;;;;;;5108332;27;20110;-78
2022/03/25 01:14:35;;;;;;;136.05;65.18;;;4.20;99.90;;;;;;5109366;27;20484;-80
2022/03/25 01:17:00;;;;;;;127.85;62.38;;;4.30;99.90;;;;;;5116548;27;20050;-82
2022/03/25 01:19:27;;;;;;;133.73;67.80;;;4.20;99.90;;;;;;5107654;27;20047;-79
2022/03/25 01:21:55;;;;;;;121.70;62.75;;;4.20;99.90;;;;;;5103324;27;20081;-79
2022/03/25 01:24:21;;;;;;;108.55;59.10;;;4.20;99.90;;;;;;5103710;27;20122;-81
2022/03/25 01:26:47;;;;;;;96.13;54.20;;;4.20;99.90;;;;;;5085391;27;20047;-79
2022/03/25 01:29:13;;;;;;;92.75;53.50;;;4.00;99.90;;;;;;5111699;27;20037;-78
2022/03/25 01:31:39;;;;;;;126.47;63.15;;;3.90;99.90;;;;;;5106685;27;20052;-80
2022/03/25 01:34:05;;;;;;;117.40;62.08;;;4.00;99.90;;;;;;5109581;27;20042;-79
2022/03/25 01:36:31;;;;;;;129.55;64.88;;;3.90;99.90;;;;;;5130273;27;20050;-79
2022/03/25 01:38:58;;;;;;;132.85;65.53;;;4.00;99.90;;;;;;5094824;27;20051;-81
2022/03/25 01:41:24;;;;;;;123.65;62.30;;;4.60;99.90;;;;;;5111404;27;20047;-79
2022/03/25 01:43:55;;;;;;;131.35;64.93;;;4.10;99.90;;;;;;5108695;27;20050;-78
2022/03/25 01:46:21;;;;;;;96.05;55.47;;;4.10;99.90;;;;;;5104112;27;20393;-81
2022/03/25 01:48:48;;;;;;;102.10;56.60;;;4.00;99.90;;;;;;5107901;27;20027;-81
2022/03/25 01:51:26;;;;;;;123.63;63.72;;;3.90;99.90;;;;;;5090330;27;20046;-80
2022/03/25 01:53:52;;;;;;;110.22;58.97;;;4.00;99.90;;;;;;5091080;27;20473;-78
2022/03/25 01:56:24;;;;;;;112.55;57.88;;;3.90;99.90;;;;;;5114688;27;20142;-79
2022/03/25 01:58:50;;;;;;;112.05;57.97;;;4.60;99.90;;;;;;5092771;27;20466;-80
2022/03/25 02:01:16;;;;;;;122.00;63.00;;;3.90;99.90;;;;;;5097076;27;20135;-82
2022/03/25 02:03:44;;;;;;;95.78;54.67;;;3.90;99.90;;;;;;5116187;27;20092;-80
2022/03/25 02:06:10;;;;;;;97.18;53.88;;;3.70;99.90;;;;;;5117267;27;20076;-77
2022/03/25 02:08:36;;;;;;;95.10;53.40;;;3.70;99.90;;;;;;5101947;27;20035;-77
2022/03/25 02:11:02;;;;;;;98.22;55.42;;;3.60;99.90;;;;;;5112538;27;20035;-81
2022/03/25 02:13:28;;;;;;;91.82;52.75;;;3.50;99.90;;;;;;5115831;27;20053;-80
2022/03/25 02:15:54;;;;;;;90.40;53.20;;;3.50;99.90;;;;;;5112522;27;20035;-78
2022/03/25 02:18:20;;;;;;;99.78;51.08;;;3.50;99.90;;;;;;5094276;27;20031;-80
2022/03/25 02:20:48;;;;;;;91.45;51.47;;;3.50;99.90;;;;;;5128584;27;20079;-79
2022/03/25 02:23:15;;;;;;;105.80;57.95;;;3.40;99.90;;;;;;5095942;27;20108;-79
2022/03/25 02:25:42;;;;;;;84.45;50.10;;;3.30;99.90;;;;;;5096106;27;20035;-77
2022/03/25 02:28:08;;;;;;;89.90;51.50;;;3.40;99.90;;;;;;5088806;28;20031;-78
2022/03/25 02:30:36;;;;;;;82.97;50.22;;;3.50;99.90;;;;;;5109649;27;20104;-77
2022/03/25 02:33:04;;;;;;;90.63;52.83;;;3.40;99.90;;;;;;5095379;27;20121;-81
2022/03/25 02:35:48;;;;;;;109.90;56.53;;;3.30;99.90;;;;;;5099547;27;20430;-81
2022/03/25 02:38:16;;;;;;;116.47;58.25;;;3.40;99.90;;;;;;5107052;27;20039;-81
2022/03/25 02:40:43;;;;;;;112.95;56.63;;;3.40;99.90;;;;;;5107342;27;20386;-79
2022/03/25 02:43:11;;;;;;;116.80;60.55;;;3.40;99.90;;;;;;5112609;27;20039;-81
2022/03/25 02:45:37;;;;;;;121.57;59.30;;;3.40;99.90;;;;;;5121333;27;20084;-79
2022/03/25 02:48:03;;;;;;;120.57;60.03;;;3.50;99.90;;;;;;5097205;27;20482;-80
2022/03/25 02:50:30;;;;;;;126.88;58.67;;;3.60;99.90;;;;;;5091368;27;20042;-78
2022/03/25 02:52:59;;;;;;;117.95;58.90;;;3.50;99.90;;;;;;5095507;27;20043;-80
2022/03/25 02:55:26;;;;;;;116.40;58.97;;;3.50;99.90;;;;;;5130502;27;20039;-81
2022/03/25 02:57:53;;;;;;;125.07;60.90;;;3.50;99.90;;;;;;5111848;27;20573;-79
2022/03/25 03:00:20;;;;;;;117.65;57.03;;;3.50;99.90;;;;;;5104919;27;20042;-79
2022/03/25 03:02:46;;;;;;;110.95;56.28;;;3.40;99.90;;;;;;5116087;27;20031;-80
2022/03/25 03:05:12;;;;;;;108.13;55.72;;;3.70;99.90;;;;;;5113233;27;20091;-79
2022/03/25 03:07:38;;;;;;;98.95;49.15;;;3.40;99.90;;;;;;5108483;28;20047;-78
2022/03/25 03:10:08;;;;;;;101.45;50.40;;;3.30;99.90;;;;;;5108692;27;20363;-82
2022/03/25 03:12:35;;;;;;;89.43;44.42;;;3.20;99.90;;;;;;5128819;27;20035;-81
2022/03/25 03:15:02;;;;;;;77.53;44.17;;;3.10;99.90;;;;;;5107231;27;20039;-77
2022/03/25 03:17:28;;;;;;;72.13;41.55;;;3.20;99.90;;;;;;5127994;27;20039;-80
2022/03/25 03:19:55;;;;;;;71.03;41.75;;;3.10;99.90;;;;;;5105886;28;20077;-78
2022/03/25 03:22:21;;;;;;;87.07;44.88;;;3.10;99.90;;;;;;5091296;27;20354;-78
2022/03/25 03:24:46;;;;;;;71.63;40.83;;;2.90;99.90;;;;;;5111108;27;20454;-78
2022/03/25 03:27:12;;;;;;;102.35;44.05;;;2.90;99.90;;;;;;5112676;27;20035;-79
2022/03/25 03:29:39;;;;;;;140.10;47.33;;;2.80;99.90;;;;;;5092731;27;20043;-81
2022/03/25 03:32:06;;;;;;;97.65;48.03;;;2.70;99.90;;;;;;5097997;27;20047;-79
2022/03/25 03:34:34;;;;;;;99.03;48.08;;;2.80;99.90;;;;;;5102709;28;20109;-78
2022/03/25 03:37:00;;;;;;;90.43;47.40;;;2.80;99.90;;;;;;5108388;28;20031;-79
2022/03/25 03:39:26;;;;;;;92.80;46.95;;;2.80;99.90;;;;;;5113307;27;20023;-80
2022/03/25 03:41:51;;;;;;;114.85;51.83;;;2.70;99.90;;;;;;5116727;27;20529;-82
2022/03/25 03:44:18;;;;;;;106.50;49.38;;;2.60;99.90;;;;;;5100777;27;20034;-78
2022/03/25 03:46:43;;;;;;;93.45;48.20;;;2.80;99.90;;;;;;5124005;27;20070;-76
2022/03/25 03:49:09;;;;;;;76.97;43.60;;;2.70;99.90;;;;;;5101427;27;20081;-78
2022/03/25 03:51:35;;;;;;;87.53;47.63;;;2.70;99.90;;;;;;5110699;27;20422;-81
2022/03/25 03:54:00;;;;;;;97.18;48.35;;;2.60;99.90;;;;;;5099521;27;20035;-79
2022/03/25 03:56:27;;;;;;;93.93;46.40;;;2.60;99.90;;;;;;5113025;27;20131;-83
2022/03/25 03:58:53;;;;;;;98.65;50.00;;;2.90;99.90;;;;;;5119916;27;20110;-78
2022/03/25 04:01:19;;;;;;;83.85;44.58;;;2.60;99.90;;;;;;5106653;27;20038;-80
2022/03/25 04:03:45;;;;;;;75.80;43.60;;;2.60;99.90;;;;;;5122327;27;20485;-83
2022/03/25 04:06:10;;;;;;;81.82;45.13;;;2.80;99.90;;;;;;5115696;27;20039;-81
2022/03/25 04:08:36;;;;;;;81.05;45.28;;;2.40;99.90;;;;;;5111301;27;20054;-78
2022/03/25 04:11:03;;;;;;;81.13;44.08;;;2.50;99.90;;;;;;5092608;27;20039;-81
2022/03/25 04:13:29;;;;;;;80.13;43.95;;;2.40;99.90;;;;;;5104724;27;20055;-76
2022/03/25 04:15:54;;;;;;;83.45;46.38;;;2.50;99.90;;;;;;5106113;27;20031;-78
2022/03/25 04:18:21;;;;;;;88.18;45.63;;;2.40;99.90;;;;;;5105710;27;20039;-77
2022/03/25 04:20:47;;;;;;;78.78;43.42;;;2.40;99.90;;;;;;5105035;27;20049;-78
2022/03/25 04:23:13;;;;;;;77.50;43.63;;;2.30;99.90;;;;;;5100421;27;20047;-79
2022/03/25 04:25:39;;;;;;;84.15;46.13;;;2.60;99.90;;;;;;5112284;27;20046;-78
2022/03/25 04:28:05;;;;;;;95.65;48.70;;;2.40;99.90;;;;;;5104964;27;22115;-79
2022/03/25 04:30:33;;;;;;;82.85;45.85;;;2.40;99.90;;;;;;5093274;27;20036;-78
2022/03/25 04:33:00;;;;;;;91.55;47.25;;;2.40;99.90;;;;;;5114510;27;20030;-78
2022/03/25 04:35:27;;;;;;;83.63;43.50;;;2.40;99.90;;;;;;5111564;27;20087;-78
2022/03/25 04:37:54;;;;;;;90.20;44.38;;;2.40;99.90;;;;;;5113124;27;20114;-81
2022/03/25 04:40:21;;;;;;;86.30;45.00;;;2.40;99.90;;;;;;5086000;27;20129;-81
2022/03/25 04:42:48;;;;;;;85.47;44.15;;;2.40;99.90;;;;;;5111701;27;20033;-82
2022/03/25 04:45:14;;;;;;;87.53;45.13;;;2.30;99.90;;;;;;5131181;27;20031;-78
2022/03/25 04:47:40;;;;;;;86.45;43.13;;;2.30;99.90;;;;;;5097589;27;20039;-78
2022/03/25 04:50:06;;;;;;;78.90;43.08;;;2.40;99.90;;;;;;5107195;27;20042;-80
2022/03/25 04:52:32;;;;;;;77.85;43.15;;;2.30;99.90;;;;;;5108933;27;20043;-81
2022/03/25 04:54:58;;;;;;;81.18;43.25;;;2.30;99.90;;;;;;5133228;27;20050;-81
2022/03/25 04:57:24;;;;;;;89.07;43.25;;;2.40;99.90;;;;;;5116504;27;20035;-81
2022/03/25 04:59:50;;;;;;;78.72;42.55;;;2.30;99.90;;;;;;5093905;27;20039;-81
2022/03/25 05:02:16;;;;;;;81.43;43.38;;;2.40;99.90;;;;;;5118247;27;20085;-81
2022/03/25 05:04:41;;;;;;;85.32;44.55;;;2.40;99.90;;;;;;5115577;27;20086;-81
2022/03/25 05:07:12;;;;;;;85.75;44.53;;;2.40;99.90;;;;;;5121885;27;20037;-79
2022/03/25 05:09:58;;;;;;;88.93;45.40;;;2.40;99.90;;;;;;5087262;27;20548;-82
2022/03/25 05:12:26;;;;;;;85.18;42.92;;;2.40;99.90;;;;;;5114352;27;20058;-79
2022/03/25 05:14:52;;;;;;;82.45;44.95;;;2.40;99.90;;;;;;5113474;27;20043;-78
2022/03/25 05:17:18;;;;;;;87.90;44.58;;;2.50;99.90;;;;;;5115447;27;20486;-79
2022/03/25 05:19:44;;;;;;;82.63;40.35;;;2.40;99.90;;;;;;5131163;27;20182;-78
2022/03/25 05:22:09;;;;;;;67.35;39.03;;;2.40;99.90;;;;;;5113981;27;20050;-78
2022/03/25 05:24:35;;;;;;;68.60;39.60;;;2.30;99.90;;;;;;5105405;27;20035;-77
2022/03/25 05:27:01;;;;;;;71.53;37.75;;;2.30;99.90;;;;;;5111263;27;20078;-78
2022/03/25 05:29:28;;;;;;;88.95;47.20;;;2.30;99.90;;;;;;5100427;27;20046;-78
2022/03/25 05:31:54;;;;;;;88.95;44.50;;;2.20;99.90;;;;;;5092228;27;20514;-77
2022/03/25 05:34:20;;;;;;;75.15;41.97;;;2.20;99.90;;;;;;5115176;27;20058;-79
2022/03/25 05:36:45;;;;;;;72.10;41.53;;;2.40;99.90;;;;;;5105530;27;20082;-82
2022/03/25 05:39:11;;;;;;;95.10;46.83;;;2.30;99.90;;;;;;5109238;27;20035;-78
2022/03/25 05:41:38;;;;;;;95.18;46.53;;;2.30;99.90;;;;;;5133819;27;20076;-77
2022/03/25 05:44:03;;;;;;;101.93;48.78;;;2.40;99.90;;;;;;5123696;27;20051;-78
2022/03/25 05:46:29;;;;;;;109.68;48.40;;;2.40;99.90;;;;;;5110745;27;20390;-82
2022/03/25 05:48:55;;;;;;;108.05;50.08;;;2.50;99.90;;;;;;5111661;27;20402;-81
2022/03/25 05:51:21;;;;;;;108.20;49.38;;;2.60;99.90;;;;;;5109457;27;20096;-81
2022/03/25 05:53:47;;;;;;;101.60;47.95;;;2.60;99.90;;;;;;5102606;27;20050;-80
2022/03/25 05:56:13;;;;;;;108.90;48.40;;;2.70;99.90;;;;;;5110873;27;20394;-79
2022/03/25 05:58:39;;;;;;;109.00;49.58;;;2.70;99.90;;;;;;5092821;27;20076;-82
2022/03/25 06:01:07;;;;;;;119.60;51.05;;;3.10;99.90;;;;;;5110806;27;20522;-82
2022/03/25 06:03:33;;;;;;;118.75;50.30;;;2.80;99.90;;;;;;5098873;27;20054;-78
2022/03/25 06:06:03;;;;;;;97.70;48.20;;;2.80;99.90;;;;;;5092590;28;20053;-77
2022/03/25 06:08:30;;;;;;;97.53;47.35;;;2.90;99.90;;;;;;5114567;27;21691;-82
2022/03/25 06:10:56;;;;;;;90.53;47.00;;;3.40;99.90;;;;;;5115612;27;20054;-80
2022/03/25 06:13:23;;;;;;;98.82;47.97;;;3.30;99.90;;;;;;5129442;27;20055;-79
2022/03/25 06:15:49;;;;;;;94.60;45.47;;;3.20;99.90;;;;;;5111476;27;20110;-82
2022/03/25 06:18:16;;;;;;;84.85;46.03;;;3.30;99.90;;;;;;5107078;27;20140;-77
2022/03/25 06:20:42;;;;;;;87.25;45.83;;;3.30;99.90;;;;;;5102467;27;20039;-79
2022/03/25 06:23:08;;;;;;;91.22;46.33;;;3.20;99.90;;;;;;5092349;27;20375;-76
2022/03/25 06:25:34;;;;;;;97.65;48.33;;;3.40;99.90;;;;;;5108234;27;20092;-77
2022/03/25 06:28:02;;;;;;;96.22;49.38;;;3.50;99.90;;;;;;5099319;27;20139;-79
2022/03/25 06:30:36;;;;;;;91.00;47.05;;;3.30;99.90;;;;;;5111551;27;20042;-80
2022/03/25 06:33:09;;;;;;;99.10;49.25;;;3.40;99.90;;;;;;5110186;27;20035;-81
2022/03/25 06:35:36;;;;;;;91.35;48.70;;;3.40;99.90;;;;;;5105815;27;20200;-79
2022/03/25 06:38:03;;;;;;;102.57;48.75;;;3.50;99.90;;;;;;5109113;27;20043;-77
2022/03/25 06:40:29;;;;;;;95.80;49.28;;;3.60;99.90;;;;;;5089099;27;20411;-82
2022/03/25 06:42:57;;;;;;;97.22;48.13;;;3.60;99.90;;;;;;5116540;27;20051;-82
2022/03/25 06:45:24;;;;;;;89.55;48.75;;;3.70;99.90;;;;;;5116391;27;20054;-77
2022/03/25 06:47:50;;;;;;;88.47;46.40;;;3.80;99.90;;;;;;5133930;27;20343;-80
2022/03/25 06:50:18;;;;;;;88.70;45.92;;;3.80;99.90;;;;;;5110700;27;20125;-80
2022/03/25 06:52:45;;;;;;;90.47;47.17;;;3.90;99.90;;;;;;5100767;27;20043;-80
2022/03/25 06:55:12;;;;;;;88.53;46.40;;;4.00;99.90;;;;;;5115671;27;20043;-79
2022/03/25 06:57:39;;;;;;;83.47;44.75;;;4.20;99.90;;;;;;5110004;27;20057;-79
2022/03/25 07:00:08;;;;;;;84.65;45.80;;;4.30;99.90;;;;;;5103678;27;20092;-78
2022/03/25 07:02:34;;;;;;;81.13;44.30;;;4.30;99.90;;;;;;5105446;27;20498;-79
2022/03/25 07:05:00;;;;;;;76.55;44.08;;;4.40;99.90;;;;;;5132471;27;20035;-78
2022/03/25 07:07:27;;;;;;;78.38;44.33;;;4.50;99.90;;;;;;5114234;27;20041;-78
2022/03/25 07:09:54;;;;;;;82.07;43.88;;;4.70;99.90;;;;;;5111645;27;20452;-80
2022/03/25 07:12:20;;;;;;;74.72;43.15;;;4.80;99.90;;;;;;5120042;27;20096;-78
2022/03/25 07:14:45;;;;;;;79.93;43.58;;;4.90;99.90;;;;;;5118226;27;20545;-85
2022/03/25 07:17:11;;;;;;;79.75;42.95;;;4.90;99.90;;;;;;5104684;27;20125;-76
2022/03/25 07:19:37;;;;;;;80.43;41.95;;;5.10;99.90;;;;;;5117822;27;20081;-82
2022/03/25 07:22:03;;;;;;;74.35;41.92;;;5.20;99.90;;;;;;5094592;27;20489;-79
2022/03/25 07:24:29;;;;;;;70.13;41.97;;;5.30;99.90;;;;;;5104813;27;20526;-79
2022/03/25 07:26:55;;;;;;;70.28;41.55;;;5.40;99.90;;;;;;5112048;27;20801;-79
2022/03/25 07:29:21;;;;;;;72.05;40.33;;;5.50;99.90;;;;;;5111817;27;20077;-81
2022/03/25 07:31:47;;;;;;;68.03;39.30;;;5.70;99.90;;;;;;5106679;27;20141;-83
2022/03/25 07:34:12;;;;;;;69.75;39.85;;;5.80;99.90;;;;;;5116654;27;20047;-78
2022/03/25 07:36:38;;;;;;;66.07;39.40;;;5.90;99.90;;;;;;5134403;27;20031;-81
2022/03/25 07:39:04;;;;;;;72.80;39.35;;;6.00;99.90;;;;;;5095430;27;20047;-79
2022/03/25 07:41:29;;;;;;;68.22;37.92;;;6.00;99.90;;;;;;5099774;27;20047;-78
2022/03/25 07:43:56;;;;;;;69.72;36.70;;;6.20;99.90;;;;;;5125511;27;20049;-79
2022/03/25 07:46:23;;;;;;;60.78;36.92;;;6.40;99.90;;;;;;5113639;27;20043;-84
2022/03/25 07:48:49;;;;;;;59.72;35.10;;;6.40;99.90;;;;;;5114419;27;20494;-79
2022/03/25 07:51:15;;;;;;;56.63;31.48;;;6.60;99.90;;;;;;5099344;27;20083;-79
2022/03/25 07:53:41;;;;;;;50.22;28.60;;;6.70;99.90;;;;;;5128453;27;20067;-79
2022/03/25 07:56:06;;;;;;;45.35;25.55;;;7.10;99.90;;;;;;5111934;27;20043;-81
2022/03/25 07:58:32;;;;;;;47.88;28.05;;;7.10;99.90;;;;;;5111801;27;20084;-80
2022/03/25 08:00:58;;;;;;;44.13;25.48;;;7.20;99.90;;;;;;5115161;27;20042;-79
2022/03/25 08:03:23;;;;;;;43.53;24.83;;;7.50;99.90;;;;;;5117461;27;20058;-77
2022/03/25 08:05:50;;;;;;;52.20;27.67;;;7.60;99.90;;;;;;5096373;27;20082;-79
2022/03/25 08:08:19;;;;;;;42.00;23.08;;;7.80;99.90;;;;;;5120521;27;20055;-81
2022/03/25 08:10:46;;;;;;;43.55;22.83;;;7.80;99.90;;;;;;5118961;27;20411;-80
2022/03/25 08:13:12;;;;;;;44.15;23.13;;;8.20;99.90;;;;;;5099585;27;20047;-82
2022/03/25 08:15:38;;;;;;;35.00;19.70;;;7.90;99.90;;;;;;5122393;27;20054;-79
2022/03/25 08:18:10;;;;;;;42.70;23.95;;;8.10;99.90;;;;;;5103136;27;20062;-81
2022/03/25 08:20:41;;;;;;;41.25;23.20;;;8.10;99.90;;;;;;5120243;27;20054;-80
2022/03/25 08:27:48;;;;;;;39.25;22.90;;;8.20;99.90;;;;;;5099361;27;20043;-80
2022/03/25 08:28:50;;;;;;;43.67;23.25;;;8.60;99.90;;;;;;5117607;27;20141;-84
2022/03/25 08:31:16;;;;;;;43.13;23.42;;;8.30;99.90;;;;;;5096162;27;20072;-76
2022/03/25 08:33:43;;;;;;;40.72;22.83;;;8.40;99.90;;;;;;5113766;27;20111;-78
2022/03/25 08:36:09;;;;;;;38.08;21.02;;;8.50;99.90;;;;;;5110962;27;20126;-79
2022/03/25 08:38:34;;;;;;;41.40;23.63;;;9.20;99.90;;;;;;5110685;27;20264;-78
2022/03/25 08:41:00;;;;;;;43.13;22.88;;;8.50;99.90;;;;;;5111250;27;20046;-78
2022/03/25 08:43:26;;;;;;;38.65;22.40;;;8.60;99.90;;;;;;5106029;27;20071;-80
2022/03/25 08:45:52;;;;;;;39.20;21.73;;;8.70;99.90;;;;;;5132090;27;20044;-80
2022/03/25 08:48:18;;;;;;;36.65;20.08;;;8.80;99.90;;;;;;5113666;27;20135;-82
2022/03/25 08:50:45;;;;;;;38.22;21.13;;;8.90;99.90;;;;;;5109539;27;20043;-77
2022/03/25 08:53:10;;;;;;;41.97;21.13;;;9.10;99.90;;;;;;5092003;27;20130;-77
2022/03/25 08:55:36;;;;;;;35.80;20.13;;;9.00;99.90;;;;;;5134850;27;20457;-76
2022/03/25 08:58:03;;;;;;;41.75;20.42;;;9.10;99.90;;;;;;5115059;27;20408;-76
2022/03/25 09:00:28;;;;;;;39.75;18.75;;;9.20;99.90;;;;;;5103678;27;20126;-79
2022/03/25 09:02:54;;;;;;;36.60;19.33;;;9.40;99.90;;;;;;5101487;27;20110;-81
2022/03/25 09:05:23;;;;;;;39.03;20.42;;;9.50;99.90;;;;;;5119461;27;20075;-79
2022/03/25 09:07:49;;;;;;;39.90;19.48;;;9.50;99.90;;;;;;5099633;27;20648;-86
2022/03/25 09:10:14;;;;;;;33.40;19.30;;;9.50;99.90;;;;;;5114856;27;20058;-79
2022/03/25 09:12:41;;;;;;;33.80;20.15;;;9.50;99.90;;;;;;5135747;27;20046;-84
2022/03/25 09:15:08;;;;;;;33.83;19.80;;;9.50;99.90;;;;;;5112350;27;20101;-87
2022/03/25 09:17:34;;;;;;;39.80;19.95;;;9.70;99.90;;;;;;5091060;28;20047;-84
2022/03/25 09:20:00;;;;;;;38.60;20.13;;;9.60;99.90;;;;;;5074794;27;20133;-83
2022/03/25 09:22:26;;;;;;;38.13;17.80;;;9.70;99.90;;;;;;5110664;27;20184;-79
2022/03/25 09:24:51;;;;;;;30.98;17.42;;;9.80;99.90;;;;;;5128156;27;20518;-84
2022/03/25 09:27:17;;;;;;;33.67;18.25;;;9.70;99.90;;;;;;5091763;27;20091;-85
2022/03/25 09:29:45;;;;;;;37.90;17.08;;;10.10;99.90;;;;;;5095741;28;20036;-81
2022/03/25 09:32:10;;;;;;;33.35;17.77;;;10.20;99.90;;;;;;5106844;27;20188;-82
2022/03/25 09:37:21;;;;;;;34.35;18.10;;;10.50;99.90;;;;;;5116278;27;20039;-84
2022/03/25 09:39:48;;;;;;;34.47;18.00;;;10.50;99.90;;;;;;5113115;27;20043;-82
2022/03/25 09:42:15;;;;;;;30.73;16.90;;;10.60;99.90;;;;;;5115514;27;20035;-86
2022/03/25 09:44:42;;;;;;;31.10;16.80;;;10.90;99.90;;;;;;5106947;27;20035;-86
2022/03/25 09:47:10;;;;;;;29.77;15.68;;;11.50;99.90;;;;;;5097348;27;20192;-80
2022/03/25 09:49:41;;;;;;;28.90;16.05;;;11.10;99.90;;;;;;5124802;27;20070;-81
2022/03/25 09:52:08;;;;;;;31.17;16.90;;;11.30;99.90;;;;;;5112293;27;20034;-84
2022/03/25 09:54:34;;;;;;;35.13;16.83;;;11.40;99.90;;;;;;5094887;27;21614;-78
2022/03/25 09:57:01;;;;;;;29.00;16.35;;;11.40;99.90;;;;;;5093436;27;20133;-78
2022/03/25 09:59:26;;;;;;;32.28;17.92;;;11.60;99.90;;;;;;5116645;27;20073;-76
2022/03/25 10:01:52;;;;;;;29.55;17.05;;;11.50;99.90;;;;;;5116596;27;20062;-76
2022/03/25 10:04:36;;;;;;;31.17;18.08;;;11.60;99.90;;;;;;5111105;27;20059;-78
2022/03/25 10:07:23;;;;;;;32.53;17.42;;;11.60;99.90;;;;;;5094237;27;20048;-79
2022/03/25 10:10:17;;;;;;;33.38;19.65;;;11.80;99.90;;;;;;5079329;27;20051;-79
2022/03/25 10:12:48;;;;;;;37.97;19.45;;;11.70;99.90;;;;;;5095291;28;20152;-79
2022/03/25 10:15:20;;;;;;;36.03;20.20;;;12.00;99.90;;;;;;5108309;27;20054;-77
2022/03/25 10:17:56;;;;;;;34.80;19.77;;;11.90;99.90;;;;;;5092073;27;20035;-78
2022/03/25 10:20:33;;;;;;;35.88;20.60;;;12.00;99.90;;;;;;5112304;27;20498;-79
2022/03/25 10:23:03;;;;;;;37.88;21.02;;;12.20;99.90;;;;;;5094104;27;20054;-81
2022/03/25 10:25:48;;;;;;;37.83;19.95;;;12.30;99.90;;;;;;5094827;27;20142;-84
2022/03/25 10:28:20;;;;;;;;;;;12.60;99.90;;;;;;5105949;27;20070;-79
2022/03/25 10:30:49;;;;;;;39.08;20.15;;;12.60;99.90;;;;;;5112767;27;19920;-81
2022/03/25 10:33:25;;;;;;;34.20;20.17;;;12.80;99.90;;;;;;5095058;27;20050;-83
2022/03/25 10:35:55;;;;;;;33.78;20.20;;;13.00;99.90;;;;;;5113181;27;20031;-81
2022/03/25 10:38:22;;;;;;;37.25;21.35;;;13.20;99.90;;;;;;5112687;27;20058;-78
2022/03/25 10:40:53;;;;;;;38.17;21.58;;;13.30;99.90;;;;;;5111402;27;20088;-79
2022/03/25 10:43:19;;;;;;;44.67;23.83;;;13.40;99.90;;;;;;5131437;27;20077;-80
2022/03/25 10:45:45;;;;;;;43.05;24.13;;;13.60;99.90;;;;;;5098125;27;20070;-80
2022/03/25 10:48:26;;;;;;;34.45;18.90;;;13.70;99.90;;;;;;5117825;27;20496;-79
2022/03/25 10:51:10;;;;;;;33.88;17.08;;;13.90;99.90;;;;;;5108951;27;20058;-77
2022/03/25 10:53:37;;;;;;;29.13;16.35;;;14.60;99.90;;;;;;5092710;27;20047;-76
2022/03/25 10:56:06;;;;;;;18.02;10.25;;;14.50;99.90;;;;;;5093097;27;20041;-77
2022/03/25 10:58:34;;;;;;;32.72;17.15;;;15.00;99.90;;;;;;5095068;27;20047;-77
2022/03/25 11:01:08;;;;;;;34.85;20.85;;;15.10;99.90;;;;;;5130707;27;20031;-74
2022/03/25 11:03:34;;;;;;;32.97;17.10;;;15.30;99.90;;;;;;5124373;27;20112;-77
2022/03/25 11:06:00;;;;;;;31.90;20.77;;;15.50;99.90;;;;;;5112511;27;20081;-77
2022/03/25 11:08:26;;;;;;;38.40;21.58;;;15.30;99.90;;;;;;5093434;28;20058;-77
2022/03/25 11:10:53;;;;;;;36.38;23.55;;;15.30;99.90;;;;;;5110482;28;20051;-76
2022/03/25 11:13:22;;;;;;;55.58;25.15;;;15.20;98.00;;;;;;5091960;28;20039;-77
2022/03/25 11:15:49;;;;;;;39.97;24.42;;;15.00;99.20;;;;;;5110512;28;20048;-77
2022/03/25 11:18:18;;;;;;;43.72;23.77;;;15.20;98.90;;;;;;5092520;28;20363;-77
2022/03/25 11:20:44;;;;;;;45.67;25.48;;;15.50;99.50;;;;;;5094494;27;20463;-76
2022/03/25 11:23:18;;;;;;;39.80;23.55;;;15.40;99.50;;;;;;5093715;28;20096;-78
2022/03/25 11:25:48;;;;;;;41.13;25.73;;;15.60;99.80;;;;;;5087668;28;20339;-76
2022/03/25 11:28:17;;;;;;;35.97;21.02;;;15.70;99.00;;;;;;5112239;27;20225;-77
2022/03/25 11:30:43;;;;;;;33.25;20.10;;;15.80;99.80;;;;;;5115133;27;20383;-80
2022/03/25 11:33:10;;;;;;;30.10;17.38;;;15.60;99.70;;;;;;5117642;27;20047;-76
2022/03/25 11:35:41;;;;;;;28.92;18.85;;;15.70;99.90;;;;;;5093544;28;20111;-77
2022/03/25 11:38:10;;;;;;;29.27;19.75;;;15.60;98.90;;;;;;5112915;27;20077;-76
2022/03/25 11:40:39;;;;;;;28.88;18.77;;;15.60;98.30;;;;;;5101195;27;20046;-77
2022/03/25 11:43:18;;;;;;;37.75;19.65;;;15.70;99.90;;;;;;5095315;28;20394;-77
2022/03/25 11:46:06;;;;;;;32.38;17.75;;;15.90;98.50;;;;;;5110866;27;20047;-77
2022/03/25 11:48:35;;;;;;;33.97;18.73;;;16.30;98.00;;;;;;5096068;28;20410;-75
2022/03/25 11:51:02;;;;;;;28.75;17.55;;;16.30;96.50;;;;;;5112025;28;20044;-76
2022/03/25 11:53:27;;;;;;;32.10;17.42;;;16.10;96.30;;;;;;5115735;28;20035;-75
2022/03/25 11:55:59;;;;;;;26.20;16.15;;;16.00;96.70;;;;;;5109597;27;20394;-74
2022/03/25 11:58:25;;;;;;;29.63;15.10;;;16.00;94.80;;;;;;5120980;27;20061;-77
2022/03/25 12:01:03;;;;;;;26.85;15.85;;;16.00;94.50;;;;;;5113108;28;20046;-76
2022/03/25 12:03:49;;;;;;;27.48;15.43;;;16.30;94.20;;;;;;5105952;27;20043;-76
2022/03/25 12:06:23;;;;;;;26.02;13.85;;;16.20;94.50;;;;;;5101908;27;20113;-78
2022/03/25 12:09:27;;;;;;;29.20;15.13;;;16.70;94.80;;;;;;5095623;27;20058;-75
2022/03/25 12:11:54;;;;;;;23.73;14.25;;;16.80;94.00;;;;;;5094727;27;20134;-75
2022/03/25 12:14:21;;;;;;;26.75;14.38;;;17.10;94.30;;;;;;5096364;27;20046;-77
2022/03/25 12:16:49;;;;;;;24.05;13.48;;;16.90;88.50;;;;;;5111781;27;20062;-76
2022/03/25 12:19:26;;;;;;;25.10;14.15;;;17.20;90.20;;;;;;5118477;27;20035;-74
2022/03/25 12:21:54;;;;;;;29.50;13.32;;;17.20;90.00;;;;;;5116327;27;20049;-76
2022/03/25 12:24:20;;;;;;;27.00;13.05;;;17.10;89.10;;;;;;5097125;27;20054;-73
2022/03/25 12:26:53;;;;;;;23.60;12.43;;;17.00;88.30;;;;;;5117085;27;20051;-73
2022/03/25 12:29:19;;;;;;;28.23;15.55;;;16.60;85.60;;;;;;5114879;27;20035;-75
2022/03/25 12:31:50;;;;;;;25.98;14.27;;;16.70;86.80;;;;;;5116252;27;20039;-72
2022/03/25 12:34:15;;;;;;;28.52;17.55;;;17.10;87.40;;;;;;5100379;27;20149;-74
2022/03/25 12:36:52;;;;;;;28.52;17.00;;;16.70;89.90;;;;;;5100159;27;20127;-74
2022/03/25 12:39:17;;;;;;;29.15;19.50;;;17.20;90.20;;;;;;5115075;27;20043;-75
2022/03/25 12:41:48;;;;;;;31.25;20.65;;;17.00;91.70;;;;;;5111981;27;20396;-72